Latest Weather Observations for Bundaberg

IDQ60801

Issued at 6:32 pm EST Tuesday 22 October 2019 (issued every 10 minutes, with the page automatically refreshed every 10 minutes)

About weather observations | Map of weather stations | Latest weather observations for QLD | Other Formats
Station Details ID: 039128 Name: BUNDABERG AERO Lat: -24.91 Lon: 152.32 Height: 30.82 m
Data from the previous 72 hours. | See also: Recent months at Bundaberg
Date/Time
EST
Temp
°C
App
Temp
°C
Dew
Point
°C
Rel
Hum
%
Delta-T
°C
Wind Press
QNH
hPa
Press
MSL
hPa
Rain since
9am
mm
Dir  Spd
km/h
Gust
km/h
Spd
kts
Gust
kts
22/06:30pm 21.3 17.1 12.4 57 5.0 ESE 26 35 14 19 1022.1 1022.0 0.0
22/06:00pm 21.8 16.9 12.4 55 5.3 ESE 30 41 16 22 1021.6 1021.5 0.0
22/05:30pm 22.6 18.0 12.3 52 5.8 ESE 28 39 15 21 1021.2 1021.1 0.0
22/05:00pm 23.5 18.5 12.2 49 6.4 E 30 39 16 21 1020.7 1020.6 0.0
22/04:30pm 24.0 18.5 11.7 46 7.0 E 32 44 17 24 1020.3 1020.2 0.0
22/04:00pm 24.9 19.7 10.4 40 8.0 E 28 39 15 21 1020.2 1020.1 0.0
22/03:30pm 25.0 19.0 10.1 39 8.2 E 32 43 17 23 1020.0 1019.9 0.0
22/03:00pm 25.4 19.3 9.7 37 8.6 E 32 43 17 23 1019.9 1019.8 0.0
22/02:30pm 25.5 19.4 9.7 37 8.7 E 32 43 17 23 1020.1 1020.0 0.0
22/02:00pm 25.7 20.1 10.3 38 8.6 E 30 41 16 22 1020.3 1020.2 0.0
22/01:30pm 26.0 20.6 11.0 39 8.5 E 30 39 16 21 1020.5 1020.4 0.0
22/01:00pm 26.1 21.0 10.7 38 8.6 E 28 37 15 20 1020.9 1020.8 0.0
22/12:30pm 26.3 22.3 10.5 37 8.9 E 22 32 12 17 1021.3 1021.2 0.0
22/12:00pm 27.1 24.0 11.6 38 8.9 E 19 35 10 19 1021.7 1021.6 0.0
22/11:30am 26.2 22.3 10.8 38 8.7 E 22 33 12 18 1022.2 1022.1 0.0
22/11:00am 26.0 22.1 12.1 42 8.0 E 24 32 13 17 1022.7 1022.6 0.0
22/10:30am 25.0 20.9 11.6 43 7.6 ESE 24 35 13 19 1023.1 1023.0 0.0
22/10:00am 25.1 21.6 12.3 45 7.3 E 22 33 12 18 1023.3 1023.2 0.0
22/09:30am 24.8 21.5 11.7 44 7.4 SE 20 28 11 15 1023.6 1023.5 0.0
22/09:00am 23.8 21.2 12.1 48 6.6 SSE 17 30 9 16 1023.8 1023.7 0.0
22/08:30am 23.0 20.1 12.3 51 6.1 SE 19 24 10 13 1023.9 1023.8 0.0
22/08:00am 21.7 19.1 12.0 54 5.4 SSE 17 24 9 13 1023.8 1023.7 0.0
22/07:30am 20.9 18.7 12.1 57 4.9 SSE 15 20 8 11 1023.7 1023.6 0.0
22/07:00am 18.7 16.9 12.0 65 3.7 S 13 17 7 9 1023.5 1023.4 0.0
22/06:30am 16.8 14.8 11.5 71 2.9 S 13 17 7 9 1023.4 1023.3 0.0
22/06:00am 15.4 13.4 11.4 77 2.1 S 13 17 7 9 1023.2 1023.1 0.0
22/05:30am 14.3 12.6 11.1 81 1.7 SSW 11 15 6 8 1022.9 1022.8 0.0
22/05:00am 14.2 12.4 10.8 80 1.8 S 11 15 6 8 1022.5 1022.4 0.0
22/04:30am 14.4 12.3 11.0 80 1.8 SSW 13 17 7 9 1022.3 1022.2 0.0
22/04:00am 14.6 12.4 10.8 78 2.0 S 13 17 7 9 1022.1 1022.0 0.0
22/03:30am 14.6 12.3 10.6 77 2.1 S 13 19 7 10 1021.9 1021.8 0.0
22/03:00am 14.7 12.9 10.7 77 2.1 S 11 15 6 8 1022.0 1021.9 0.0
22/02:30am 14.9 13.1 10.7 76 2.2 S 11 15 6 8 1022.2 1022.1 0.0
22/02:00am 15.1 13.3 10.9 76 2.2 SSW 11 15 6 8 1022.3 1022.2 0.0
22/01:30am 15.1 13.7 10.9 76 2.2 SSW 9 13 5 7 1022.6 1022.5 0.0
22/01:00am 15.4 13.6 10.8 74 2.4 S 11 13 6 7 1023.0 1022.9 0.0
22/12:30am 15.9 14.2 11.1 73 2.6 SSW 11 15 6 8 1023.4 1023.3 0.0
22/12:00am 16.3 14.5 11.0 71 2.8 S 11 15 6 8 1023.6 1023.5 0.0
 
Date/Time
EST
Temp
°C
App
Temp
°C
Dew
Point
°C
Rel
Hum
%
Delta-T
°C
Wind Press
QNH
hPa
Press
MSL
hPa
Rain since
9am
mm
Dir  Spd
km/h
Gust
km/h
Spd
kts
Gust
kts
21/11:30pm 16.6 14.9 11.1 70 3.0 S 11 15 6 8 1023.8 1023.7 0.0
21/11:00pm 17.0 14.9 11.1 68 3.2 S 13 17 7 9 1023.8 1023.7 0.0
21/10:30pm 17.5 15.4 11.3 67 3.4 S 13 17 7 9 1023.9 1023.8 0.0
21/10:00pm 18.0 15.9 11.3 65 3.6 S 13 17 7 9 1024.0 1023.9 0.0
21/09:30pm 18.3 16.2 11.1 63 3.9 SSE 13 19 7 10 1024.1 1024.0 0.0
21/09:00pm 18.8 16.8 11.4 62 4.0 SSE 13 17 7 9 1024.1 1024.0 0.0
21/08:30pm 19.1 16.7 11.4 61 4.2 SE 15 19 8 10 1023.7 1023.6 0.0
21/08:00pm 19.6 16.4 11.4 59 4.5 SE 19 24 10 13 1023.6 1023.5 0.0
21/07:30pm 20.1 16.7 11.1 56 4.9 SE 20 28 11 15 1023.3 1023.2 0.0
21/07:00pm 20.4 16.6 11.1 55 5.1 SE 22 28 12 15 1023.1 1023.0 0.0
21/06:30pm 21.0 15.7 11.1 53 5.5 SE 30 39 16 21 1022.5 1022.4 0.0
21/06:00pm 21.5 16.0 11.8 54 5.4 ESE 32 39 17 21 1021.9 1021.8 0.0
21/05:30pm 22.1 16.2 12.4 54 5.5 ESE 35 46 19 25 1021.5 1021.4 0.0
21/05:00pm 23.0 16.7 12.3 51 6.1 ESE 37 46 20 25 1020.8 1020.7 0.0
21/04:30pm 23.8 17.7 11.8 47 6.8 ESE 35 50 19 27 1020.4 1020.3 0.0
21/04:00pm 24.2 18.1 11.9 46 7.0 ESE 35 50 19 27 1020.1 1020.0 0.0
21/03:30pm 24.9 18.0 11.5 43 7.6 ESE 39 48 21 26 1019.9 1019.8 0.0
21/03:00pm 25.3 18.6 12.2 44 7.5 ESE 39 52 21 28 1019.8 1019.7 0.0
21/02:30pm 25.6 18.9 12.4 43 7.6 ESE 39 50 21 27 1020.0 1019.9 0.0
21/02:00pm 25.7 19.5 12.5 44 7.6 ESE 37 50 20 27 1020.2 1020.1 0.0
21/01:30pm 25.9 19.7 12.7 44 7.7 ESE 37 50 20 27 1020.5 1020.4 0.0
21/01:00pm 26.2 20.2 13.3 45 7.5 ESE 37 46 20 25 1020.8 1020.7 0.0
21/12:30pm 26.5 20.6 13.6 45 7.6 E 37 48 20 26 1020.9 1020.8 0.0
21/12:00pm 26.1 20.4 12.9 44 7.7 E 35 44 19 24 1021.1 1021.0 0.0
21/11:30am 26.5 20.5 13.3 44 7.8 ESE 37 50 20 27 1021.4 1021.3 0.0
21/11:00am 26.3 21.0 13.1 44 7.7 ESE 33 44 18 24 1021.7 1021.6 0.0
21/10:30am 26.7 21.4 13.1 43 8.0 ESE 33 44 18 24 1022.0 1021.9 0.0
21/10:00am 25.5 20.1 14.0 49 6.8 E 35 50 19 27 1022.2 1022.1 0.0
21/09:30am 25.3 20.4 13.8 49 6.8 ESE 32 44 17 24 1022.3 1022.2 0.0
21/09:00am 24.6 19.6 14.1 52 6.2 ESE 33 43 18 23 1022.3 1022.2 0.0
21/08:30am 24.7 20.4 15.3 56 5.7 SE 32 44 17 24 1022.2 1022.1 0.0
21/08:00am 23.3 19.0 15.4 61 4.7 SE 32 44 17 24 1022.0 1021.9 0.0
21/07:30am 22.5 18.7 15.8 66 4.0 SE 30 37 16 20 1021.8 1021.7 0.0
21/07:00am 21.3 19.3 16.5 74 2.9 SSE 22 28 12 15 1021.6 1021.5 0.0
21/06:30am 19.9 19.2 16.3 80 2.2 SSE 15 22 8 12 1021.5 1021.4 0.0
21/06:00am 18.7 17.9 16.1 85 1.5 S 15 22 8 12 1021.1 1021.0 0.0
21/05:30am 18.0 17.5 15.8 87 1.3 S 13 20 7 11 1020.8 1020.7 0.0
21/05:00am 17.9 17.3 15.7 87 1.3 S 13 19 7 10 1020.5 1020.4 0.0
21/04:30am 18.2 17.3 15.8 86 1.4 S 15 20 8 11 1020.0 1019.9 0.0
21/04:00am 18.4 17.9 15.8 85 1.5 S 13 17 7 9 1019.9 1019.8 0.0
21/03:30am 18.5 17.9 15.7 84 1.7 S 13 17 7 9 1019.7 1019.6 0.0
21/03:00am 18.7 18.2 15.9 84 1.7 S 13 20 7 11 1019.5 1019.4 0.0
21/02:30am 18.9 18.4 16.0 83 1.7 S 13 19 7 10 1019.5 1019.4 0.0
21/02:00am 19.1 18.3 16.1 83 1.8 SSE 15 22 8 12 1019.5 1019.4 0.0
21/01:30am 19.3 18.1 16.2 82 1.9 SSE 17 22 9 12 1019.5 1019.4 0.0
21/01:00am 19.4 18.2 16.1 81 2.0 SSE 17 22 9 12 1019.9 1019.8 0.0
21/12:30am 19.5 18.3 16.2 81 2.0 SSE 17 24 9 13 1019.9 1019.8 0.0
21/12:00am 19.6 18.9 16.3 81 2.0 SSE 15 22 8 12 1020.1 1020.0 0.0
 
Date/Time
EST
Temp
°C
App
Temp
°C
Dew
Point
°C
Rel
Hum
%
Delta-T
°C
Wind Press
QNH
hPa
Press
MSL
hPa
Rain since
9am
mm
Dir  Spd
km/h
Gust
km/h
Spd
kts
Gust
kts
20/11:30pm 19.8 19.1 16.3 80 2.1 SSE 15 24 8 13 1020.0 1019.9 0.0
20/11:00pm 19.9 20.0 16.5 81 2.0 S 11 17 6 9 1020.1 1020.0 0.0
20/10:30pm 20.1 19.9 16.7 81 2.1 SSE 13 19 7 10 1019.8 1019.7 0.0
20/10:00pm 20.5 19.5 16.7 79 2.3 SSE 17 22 9 12 1019.6 1019.5 0.0
20/09:30pm 20.9 19.6 16.9 78 2.4 SSE 19 26 10 14 1019.7 1019.6 0.0
20/09:00pm 21.2 20.4 17.0 77 2.6 SSE 17 22 9 12 1019.6 1019.5 0.0
20/08:30pm 21.6 20.8 17.0 75 2.8 SSE 17 20 9 11 1019.1 1019.0 0.0
20/08:00pm 22.1 20.9 17.0 73 3.1 SE 19 22 10 12 1018.8 1018.7 0.0
20/07:30pm 22.3 21.0 16.8 71 3.4 SE 19 24 10 13 1018.4 1018.3 0.0
20/07:00pm 22.6 21.4 17.1 71 3.4 SE 19 24 10 13 1017.8 1017.7 0.0
20/06:30pm 22.8 20.9 16.8 69 3.7 ESE 22 32 12 17 1017.3 1017.2 0.0
20/06:00pm 23.1 20.4 16.6 67 4.0 ESE 26 35 14 19 1016.7 1016.6 0.0
20/05:30pm 23.9 20.2 15.9 61 4.9 ESE 30 39 16 21 1016.2 1016.1 0.0
20/05:00pm 25.0 20.7 15.3 55 5.8 ESE 32 44 17 24 1015.7 1015.6 0.0
20/04:30pm 25.7 21.5 15.7 54 6.1 ESE 32 41 17 22 1015.1 1015.0 0.0
20/04:00pm 26.3 21.5 15.7 52 6.5 ESE 35 44 19 24 1014.8 1014.7 0.0
20/03:30pm 27.5 22.4 13.8 43 8.2 ESE 33 46 18 25 1014.7 1014.6 0.0
20/03:00pm 28.7 21.5 10.4 32 10.4 ESE 39 46 21 25 1014.1 1014.0 0.0
20/02:46pm 30.3 24.5 8.1 25 12.2 E 28 46 15 25 1013.9 1013.8 0.0
20/02:30pm 31.0 25.5 6.1 21 13.3 E 24 32 13 17 1013.8 1013.7 0.0
20/02:00pm 30.8 24.4 5.3 20 13.4 E 28 37 15 20 1014.0 1013.9 0.0
20/01:30pm 30.7 25.7 6.6 22 12.9 ENE 22 32 12 17 1014.3 1014.2 0.0
20/01:00pm 31.2 27.0 5.6 20 13.6 ESE 17 28 9 15 1014.5 1014.4 0.0
20/12:30pm 31.4 26.7 0.7 14 15.0 SSE 15 24 8 13 1015.0 1014.9 0.0
20/12:00pm 31.0 26.5 2.3 16 14.4 S 15 24 8 13 1015.3 1015.2 0.0
20/11:30am 30.7 26.6 2.0 16 14.3 SE 13 22 7 12 1015.7 1015.6 0.0
20/11:00am 30.1 25.6 4.0 19 13.4 SSE 17 32 9 17 1016.2 1016.1 0.0
20/10:30am 29.1 26.6 9.8 30 10.8 SE 13 24 7 13 1016.5 1016.4 0.0
20/10:00am 27.9 25.8 12.3 38 9.1 SSE 15 22 8 12 1016.7 1016.6 0.0
20/09:30am 25.4 25.6 15.7 55 5.9 SSW 9 15 5 8 1017.0 1016.9 0.0
20/09:00am 24.0 24.7 17.0 65 4.3 SSW 9 15 5 8 1017.2 1017.1 4.2
20/08:30am 22.0 22.7 18.0 78 2.5 SW 11 17 6 9 1017.1 1017.0 4.2
20/08:00am 20.8 21.1 17.8 83 1.9 SSW 13 17 7 9 1017.2 1017.1 4.2
20/07:56am 20.7 21.0 17.9 84 1.7 SSW 13 17 7 9 1017.2 1017.1 4.2
20/07:30am 20.5 21.4 18.4 88 1.3 SSW 11 17 6 9 1016.9 1016.8 4.2
20/07:00am 20.0 21.1 18.8 93 0.8 SSW 11 17 6 9 1016.7 1016.6 4.2
20/06:30am 20.0 22.2 19.5 97 0.3 SW 7 11 4 6 1016.6 1016.5 4.2
20/06:00am 20.1 23.4 19.9 99 0.1 SW 2 7 1 4 1016.3 1016.2 4.2
20/05:30am 19.9 21.8 19.7 99 0.1 SW 9 11 5 6 1015.9 1015.8 4.2
20/05:02am 20.1 22.1 19.9 99 0.1 W 9 15 5 8 1015.7 1015.6 4.2
20/05:00am 20.0 21.9 19.8 99 0.1 W 9 15 5 8 1015.6 1015.5 4.2
20/04:30am 20.0 21.9 19.8 99 0.1 WSW 9 13 5 7 1015.5 1015.4 4.2
20/04:00am 19.7 21.5 19.5 99 0.1 WSW 9 13 5 7 1015.1 1015.0 4.2
20/03:30am 19.6 22.3 19.4 99 0.1 WSW 4 7 2 4 1015.2 1015.1 4.2
20/03:00am 19.7 21.5 19.5 99 0.1 WSW 9 13 5 7 1015.0 1014.9 4.0
20/02:41am 19.9 22.1 19.7 99 0.1 WSW 7 9 4 5 1015.1 1015.0 4.0
20/02:39am 19.9 22.1 19.7 99 0.1 WSW 7 9 4 5 1015.1 1015.0 4.0
20/02:30am 19.9 21.8 19.7 99 0.1 WSW 9 9 5 5 1015.1 1015.0 4.0
20/02:03am 19.8 21.9 19.3 97 0.3 W 7 9 4 5 1015.1 1015.0 4.0
20/02:00am 19.7 21.7 19.2 97 0.3 W 7 9 4 5 1015.1 1015.0 4.0
20/01:53am 19.8 22.9 19.5 98 0.2 WNW 2 7 1 4 1015.2 1015.1 4.0
20/01:43am 20.0 22.7 19.5 97 0.3 WNW 4 7 2 4 1015.3 1015.2 4.0
20/01:30am 20.0 23.5 19.5 97 0.3 CALM 0 6 0 3 1015.3 1015.2 4.0
20/01:20am 20.0 23.5 19.5 97 0.3 CALM 0 0 0 0 1015.5 1015.4 4.0
20/01:00am 20.3 23.9 19.8 97 0.3 CALM 0 0 0 0 1015.6 1015.5 4.0
20/12:30am 20.5 24.2 20.0 97 0.3 CALM 0 0 0 0 1015.9 1015.8 4.0
20/12:00am 20.7 22.8 20.2 97 0.3 WNW 9 13 5 7 1016.2 1016.1 4.0
 
Date/Time
EST
Temp
°C
App
Temp
°C
Dew
Point
°C
Rel
Hum
%
Delta-T
°C
Wind Press
QNH
hPa
Press
MSL
hPa
Rain since
9am
mm
Dir  Spd
km/h
Gust
km/h
Spd
kts
Gust
kts
19/11:30pm 21.1 23.3 20.4 96 0.5 N 9 13 5 7 1016.1 1016.0 4.0
19/11:00pm 21.0 24.7 20.0 94 0.6 CALM 0 0 0 0 1016.1 1016.0 4.0
19/10:30pm 20.8 23.4 20.0 95 0.5 NE 6 7 3 4 1016.5 1016.4 4.0
19/10:00pm 20.8 23.2 20.0 95 0.5 E 7 9 4 5 1016.1 1016.0 4.0
19/09:30pm 20.9 22.2 20.1 95 0.5 NNE 13 17 7 9 1016.0 1015.9 4.0
19/09:19pm 20.5 22.0 19.7 95 0.5 ENE 11 17 6 9 1015.8 1015.7 4.0
19/09:05pm 20.5 21.6 19.7 95 0.5 ESE 13 17 7 9 1015.6 1015.5 3.8
19/09:00pm 20.7 21.9 19.9 95 0.5 SSE 13 17 7 9 1016.0 1015.9 2.2
19/08:39pm 20.8 21.4 19.5 92 0.8 S 15 19 8 10 1016.2 1016.1 1.0
19/08:30pm 21.1 20.4 19.4 90 1.1 SSE 22 35 12 19 1016.2 1016.1 0.8
19/08:03pm 23.2 20.7 19.8 81 2.2 N 32 39 17 21 1014.4 1014.3 0.0
19/08:00pm 23.2 21.1 19.8 81 2.2 N 30 39 16 21 1014.5 1014.4 0.0
19/07:30pm 23.2 20.3 20.0 82 2.1 N 35 43 19 23 1013.7 1013.6 0.0
19/07:23pm 23.2 20.3 20.0 82 2.1 N 35 44 19 24 1013.6 1013.5 0.0
19/07:00pm 23.4 20.5 20.0 81 2.2 N 35 46 19 25 1013.8 1013.7 0.0
19/06:36pm 23.5 21.4 19.8 80 2.4 N 30 43 16 23 1013.9 1013.8 0.0

Other formats

Comma delimited format used in spreadsheet applications
http://www.bom.gov.au/fwo/IDQ60801/IDQ60801.94387.axf

JavaScript Object Notation format (JSON) in row-major order
http://www.bom.gov.au/fwo/IDQ60801/IDQ60801.94387.json

Data quality

Most of these data are generated automatically and are frequently updated. Quality checks on data are not normally performed. It is possible for incorrect values to appear. Refer to information at About Latest Weather Observations and please check the disclaimer before using these data.